Time;durP1;ratioP1;P1;durP2;ratioP2;P2;SDS_P1;SDS_P2;PMS_P1;PMS_P2;Temp;Humidity;BMP_temperature;BMP_pressure;BME280_temperature;BME280_humidity;BME280_pressure;Samples;Min_cycle;Max_cycle;Signal;HPM_P1;HPM_P2
2023/06/04 00:01:58;;;;;;;21.80;10.93;;;;;;;;;;5030661;28;20451;-69
2023/06/04 00:04:27;;;;;;;20.63;9.93;;;;;;;;;;5013686;28;20939;-69
2023/06/04 00:06:55;;;;;;;16.60;8.23;;;;;;;;;;5030737;28;20539;-69
2023/06/04 00:09:21;;;;;;;21.93;9.53;;;;;;;;;;5012928;28;20436;-69
2023/06/04 00:11:48;;;;;;;22.33;9.47;;;;;;;;;;5012558;28;20478;-69
2023/06/04 00:14:32;;;;;;;20.67;10.00;;;;;;;;;;5030472;28;20482;-69
2023/06/04 00:16:59;;;;;;;19.97;9.57;;;;;;;;;;5030168;28;20494;-69
2023/06/04 00:19:25;;;;;;;21.07;10.23;;;;;;;;;;5030805;28;20440;-69
2023/06/04 00:21:52;;;;;;;19.13;9.97;;;;;;;;;;5030722;28;20786;-69
2023/06/04 00:24:19;;;;;;;20.27;10.10;;;;;;;;;;5012999;28;20438;-69
2023/06/04 00:26:46;;;;;;;17.67;9.43;;;;;;;;;;5030478;28;20523;-69
2023/06/04 00:29:12;;;;;;;19.60;10.20;;;;;;;;;;5012635;28;20453;-69
2023/06/04 00:31:39;;;;;;;18.07;8.87;;;;;;;;;;5030299;28;20471;-69
2023/06/04 00:34:06;;;;;;;23.33;9.73;;;;;;;;;;4996621;28;21158;-69
2023/06/04 00:36:33;;;;;;;28.37;9.80;;;;;;;;;;5030172;28;20463;-69
2023/06/04 00:39:00;;;;;;;19.27;9.00;;;;;;;;;;5012177;28;20951;-69
2023/06/04 00:41:43;;;;;;;16.90;9.20;;;;;;;;;;5030154;28;20783;-69
2023/06/04 00:44:11;;;;;;;16.87;9.47;;;;;;;;;;5012144;28;20514;-69
2023/06/04 00:46:38;;;;;;;15.53;8.83;;;;;;;;;;5030195;28;21150;-69
2023/06/04 00:49:05;;;;;;;18.07;9.37;;;;;;;;;;5030397;28;20525;-69
2023/06/04 00:51:32;;;;;;;19.03;9.40;;;;;;;;;;4995953;28;20442;-69
2023/06/04 00:53:58;;;;;;;19.60;9.70;;;;;;;;;;4995942;28;20439;-69
2023/06/04 00:56:25;;;;;;;18.83;9.33;;;;;;;;;;5012498;28;20904;-69
2023/06/04 00:58:53;;;;;;;18.00;9.00;;;;;;;;;;5030057;28;20433;-69
2023/06/04 01:01:21;;;;;;;16.00;8.50;;;;;;;;;;5030077;28;20957;-69
2023/06/04 01:03:49;;;;;;;16.90;8.93;;;;;;;;;;5011834;28;20441;-69
2023/06/04 01:06:36;;;;;;;17.33;8.53;;;;;;;;;;5011964;28;20941;-69
2023/06/04 01:09:20;;;;;;;18.87;9.87;;;;;;;;;;5009622;28;20424;-69
2023/06/04 01:11:47;;;;;;;18.10;9.03;;;;;;;;;;4995382;28;20441;-69
2023/06/04 01:14:33;;;;;;;20.30;9.40;;;;;;;;;;4997937;28;20430;-69
2023/06/04 01:17:19;;;;;;;18.07;9.43;;;;;;;;;;4995657;28;20486;-69
2023/06/04 01:20:23;;;;;;;20.57;9.63;;;;;;;;;;5029222;28;20513;-69
2023/06/04 01:22:54;;;;;;;25.57;9.60;;;;;;;;;;4995422;28;20454;-69
2023/06/04 01:25:23;;;;;;;19.77;9.17;;;;;;;;;;5011776;28;20824;-69
2023/06/04 01:27:52;;;;;;;18.83;9.33;;;;;;;;;;5011872;28;20428;-69
2023/06/04 01:30:21;;;;;;;15.97;9.03;;;;;;;;;;5011784;28;20438;-69
2023/06/04 01:32:48;;;;;;;23.20;9.93;;;;;;;;;;4995197;28;20453;-69
2023/06/04 01:35:15;;;;;;;17.43;9.07;;;;;;;;;;5011745;28;20515;-69
2023/06/04 01:37:41;;;;;;;19.40;9.63;;;;;;;;;;5011116;28;20472;-69
2023/06/04 01:40:26;;;;;;;29.70;9.87;;;;;;;;;;5011774;28;20425;-69
2023/06/04 02:15:22;;;;;;;19.97;7.67;;;;;;;;;;5026883;28;20459;-69
2023/06/04 02:17:51;;;;;;;13.27;7.73;;;;;;;;;;5008341;28;20481;-69
2023/06/04 02:20:18;;;;;;;17.60;8.20;;;;;;;;;;5011222;28;20437;-69
2023/06/04 02:22:45;;;;;;;17.13;7.33;;;;;;;;;;5011105;28;20446;-69
2023/06/04 02:25:29;;;;;;;18.50;7.80;;;;;;;;;;5028622;28;20849;-69
2023/06/04 02:27:55;;;;;;;13.50;7.33;;;;;;;;;;5011381;28;20778;-69
2023/06/04 02:30:22;;;;;;;27.47;8.20;;;;;;;;;;4994865;28;20536;-69
2023/06/04 02:32:50;;;;;;;14.40;7.37;;;;;;;;;;5028282;28;20426;-69
2023/06/04 02:35:18;;;;;;;13.13;6.83;;;;;;;;;;5028604;28;20454;-69
2023/06/04 02:37:45;;;;;;;13.03;6.93;;;;;;;;;;5011000;28;20470;-69
2023/06/04 02:40:11;;;;;;;12.33;6.73;;;;;;;;;;5011491;28;20423;-69
2023/06/04 02:42:38;;;;;;;15.10;7.17;;;;;;;;;;5010677;28;20446;-68
2023/06/04 02:45:05;;;;;;;16.67;6.23;;;;;;;;;;5010579;28;20438;-68
2023/06/04 02:47:32;;;;;;;16.73;7.43;;;;;;;;;;5028437;28;20410;-68
2023/06/04 02:49:58;;;;;;;13.77;6.90;;;;;;;;;;5027698;28;21031;-68
2023/06/04 02:52:26;;;;;;;15.23;6.93;;;;;;;;;;4994784;28;20968;-68
2023/06/04 02:54:52;;;;;;;11.57;6.67;;;;;;;;;;5028482;28;20426;-69
2023/06/04 02:57:19;;;;;;;12.80;6.87;;;;;;;;;;5028481;28;20983;-69
2023/06/04 02:59:46;;;;;;;13.43;6.80;;;;;;;;;;5028195;28;20437;-69
2023/06/04 03:02:14;;;;;;;12.67;6.30;;;;;;;;;;4994842;28;20449;-69
2023/06/04 03:04:42;;;;;;;12.50;7.07;;;;;;;;;;5010814;28;20434;-70
2023/06/04 03:07:11;;;;;;;15.90;7.07;;;;;;;;;;5028560;28;20446;-68
2023/06/04 03:09:37;;;;;;;9.07;6.03;;;;;;;;;;5014579;28;20500;-70
2023/06/04 03:12:04;;;;;;;11.67;6.40;;;;;;;;;;5032404;28;20536;-70
2023/06/04 03:14:34;;;;;;;10.77;5.73;;;;;;;;;;5014071;28;21027;-68
2023/06/04 03:17:07;;;;;;;9.57;5.60;;;;;;;;;;5014277;28;20477;-68
2023/06/04 03:19:35;;;;;;;11.77;6.10;;;;;;;;;;5014206;28;20429;-69
2023/06/04 03:22:05;;;;;;;12.33;7.57;;;;;;;;;;4998113;28;20455;-69
2023/06/04 03:24:33;;;;;;;10.97;6.27;;;;;;;;;;4998522;28;20529;-69
2023/06/04 03:27:00;;;;;;;10.77;6.57;;;;;;;;;;5014594;28;20504;-68
2023/06/04 03:29:27;;;;;;;10.90;6.03;;;;;;;;;;4998218;28;20443;-69
2023/06/04 03:31:54;;;;;;;11.73;6.33;;;;;;;;;;5014446;28;20443;-69
2023/06/04 03:34:24;;;;;;;10.70;6.50;;;;;;;;;;5014382;28;20435;-69
2023/06/04 03:36:51;;;;;;;12.63;6.40;;;;;;;;;;5014209;28;20469;-69
2023/06/04 03:39:19;;;;;;;9.93;6.13;;;;;;;;;;4998181;28;21162;-69
2023/06/04 03:41:47;;;;;;;11.30;5.63;;;;;;;;;;5014038;28;20477;-69
2023/06/04 03:44:15;;;;;;;10.43;5.90;;;;;;;;;;5032175;28;20460;-69
2023/06/04 03:46:43;;;;;;;11.67;6.13;;;;;;;;;;5013986;28;20440;-69
2023/06/04 03:49:11;;;;;;;12.83;6.37;;;;;;;;;;4997878;28;20492;-69
2023/06/04 03:51:37;;;;;;;12.23;6.33;;;;;;;;;;5031532;28;20434;-69
2023/06/04 03:54:05;;;;;;;11.57;5.77;;;;;;;;;;5013901;28;20442;-69
2023/06/04 03:56:50;;;;;;;11.80;6.57;;;;;;;;;;5013502;28;21007;-69
2023/06/04 03:59:17;;;;;;;11.07;6.43;;;;;;;;;;4997713;28;20438;-69
2023/06/04 04:01:45;;;;;;;10.07;6.00;;;;;;;;;;5013466;28;20204;-69
2023/06/04 04:04:12;;;;;;;12.77;6.60;;;;;;;;;;5013641;28;20791;-69
2023/06/04 04:06:39;;;;;;;14.70;6.73;;;;;;;;;;4997168;28;20450;-69
2023/06/04 04:09:07;;;;;;;11.23;6.10;;;;;;;;;;4997412;28;20243;-69
2023/06/04 04:11:35;;;;;;;13.80;6.67;;;;;;;;;;5013594;28;20206;-69
2023/06/04 04:14:03;;;;;;;12.27;6.83;;;;;;;;;;5013241;28;20437;-69
2023/06/04 04:16:30;;;;;;;14.87;6.90;;;;;;;;;;4996419;28;20272;-69
2023/06/04 04:18:57;;;;;;;12.23;6.20;;;;;;;;;;5012794;28;20314;-69
2023/06/04 04:21:24;;;;;;;12.30;6.80;;;;;;;;;;5012606;28;20212;-69
2023/06/04 04:23:51;;;;;;;12.43;6.93;;;;;;;;;;5012564;28;20206;-69
2023/06/04 04:26:19;;;;;;;11.97;7.17;;;;;;;;;;5012807;28;20626;-69
2023/06/04 04:28:52;;;;;;;12.77;6.90;;;;;;;;;;5012641;28;20206;-69
2023/06/04 04:31:22;;;;;;;14.47;7.10;;;;;;;;;;5012972;28;20322;-69
2023/06/04 04:33:51;;;;;;;12.77;7.20;;;;;;;;;;5012895;28;20200;-69
2023/06/04 04:36:18;;;;;;;11.00;6.07;;;;;;;;;;4996499;28;20214;-69
2023/06/04 04:38:54;;;;;;;13.50;6.50;;;;;;;;;;5012792;28;20223;-69
2023/06/04 04:41:27;;;;;;;12.77;6.97;;;;;;;;;;4998009;28;20203;-69
2023/06/04 04:44:02;;;;;;;11.63;6.00;;;;;;;;;;5013019;28;20293;-69
2023/06/04 04:46:28;;;;;;;11.90;5.80;;;;;;;;;;5030446;28;20180;-69
2023/06/04 04:48:55;;;;;;;12.97;5.90;;;;;;;;;;5013009;28;20290;-69
2023/06/04 04:51:22;;;;;;;11.40;6.30;;;;;;;;;;5030169;28;20196;-69
2023/06/04 04:53:51;;;;;;;9.00;4.67;;;;;;;;;;4996563;28;20230;-69
2023/06/04 04:56:35;;;;;;;8.97;5.20;;;;;;;;;;5012665;28;20174;-69
2023/06/04 04:59:03;;;;;;;7.60;4.27;;;;;;;;;;4996366;28;20219;-69
2023/06/04 05:01:47;;;;;;;7.80;4.07;;;;;;;;;;4998676;28;20701;-69
2023/06/04 05:04:15;;;;;;;9.07;4.50;;;;;;;;;;5012378;28;20191;-69
2023/06/04 05:06:59;;;;;;;6.90;3.90;;;;;;;;;;5012380;28;20523;-69
2023/06/04 05:09:26;;;;;;;4.80;3.03;;;;;;;;;;4996289;28;20200;-69
2023/06/04 05:12:10;;;;;;;5.80;2.90;;;;;;;;;;5012109;28;20179;-69
2023/06/04 05:14:38;;;;;;;5.60;2.50;;;;;;;;;;5012367;28;20238;-69
2023/06/04 05:17:06;;;;;;;5.27;2.93;;;;;;;;;;5011917;28;20227;-69
2023/06/04 05:19:34;;;;;;;6.40;2.30;;;;;;;;;;5012488;28;20199;-69
2023/06/04 05:22:00;;;;;;;3.27;1.60;;;;;;;;;;5011903;28;20566;-69
2023/06/04 05:24:28;;;;;;;4.83;1.50;;;;;;;;;;5011650;28;20184;-68
2023/06/04 05:27:00;;;;;;;3.27;1.27;;;;;;;;;;5011772;28;20207;-69
2023/06/04 05:29:28;;;;;;;2.50;1.40;;;;;;;;;;5012260;28;20202;-69
2023/06/04 05:31:55;;;;;;;1.83;1.40;;;;;;;;;;5011135;28;20556;-68
2023/06/04 05:34:22;;;;;;;2.43;1.10;;;;;;;;;;5012328;28;20666;-68
2023/06/04 05:36:50;;;;;;;3.03;1.40;;;;;;;;;;5011642;28;20199;-69
2023/06/04 05:39:18;;;;;;;5.67;1.60;;;;;;;;;;4995479;28;20744;-68
2023/06/04 05:42:06;;;;;;;2.13;1.30;;;;;;;;;;5011682;28;20281;-69
2023/06/04 05:44:33;;;;;;;1.77;1.20;;;;;;;;;;4995385;28;20825;-69
2023/06/04 05:47:00;;;;;;;3.67;1.27;;;;;;;;;;5011474;28;20749;-69
2023/06/04 05:49:27;;;;;;;2.50;1.50;;;;;;;;;;5011388;28;20207;-68
2023/06/04 05:51:56;;;;;;;4.10;1.20;;;;;;;;;;5011132;28;20238;-69
2023/06/04 05:54:23;;;;;;;3.70;1.23;;;;;;;;;;5029108;28;20303;-69
2023/06/04 05:56:50;;;;;;;1.80;1.20;;;;;;;;;;5011190;28;20199;-69
2023/06/04 05:59:34;;;;;;;3.43;1.37;;;;;;;;;;5011304;28;20542;-69
2023/06/04 06:02:06;;;;;;;1.67;1.20;;;;;;;;;;5029063;28;20191;-69
2023/06/04 06:04:50;;;;;;;4.83;1.37;;;;;;;;;;5011187;28;20507;-72
2023/06/04 06:07:18;;;;;;;4.20;1.60;;;;;;;;;;5029055;28;20184;-71
2023/06/04 06:10:02;;;;;;;2.17;1.10;;;;;;;;;;4997684;28;20179;-71
2023/06/04 06:12:31;;;;;;;2.17;1.20;;;;;;;;;;4994995;28;20195;-71
2023/06/04 06:14:58;;;;;;;1.97;1.30;;;;;;;;;;5011041;28;20210;-72
2023/06/04 06:17:25;;;;;;;2.23;1.20;;;;;;;;;;5028283;28;20625;-70
2023/06/04 06:19:52;;;;;;;3.03;1.30;;;;;;;;;;5011069;28;20199;-71
2023/06/04 06:22:19;;;;;;;2.87;1.17;;;;;;;;;;5011087;28;20197;-72
2023/06/04 06:24:48;;;;;;;4.07;1.17;;;;;;;;;;5010923;28;20195;-73
2023/06/04 06:27:15;;;;;;;2.60;0.80;;;;;;;;;;5011559;28;20188;-72
2023/06/04 06:30:00;;;;;;;2.53;1.10;;;;;;;;;;5010911;28;20220;-72
2023/06/04 06:32:27;;;;;;;1.40;0.80;;;;;;;;;;5028238;28;20218;-72
2023/06/04 06:34:54;;;;;;;3.07;0.90;;;;;;;;;;5026162;28;20218;-72
2023/06/04 06:37:20;;;;;;;1.57;0.93;;;;;;;;;;5029695;28;20211;-71
2023/06/04 06:39:47;;;;;;;1.53;0.90;;;;;;;;;;5011977;28;20207;-71
2023/06/04 06:42:16;;;;;;;1.37;1.00;;;;;;;;;;4999461;28;20762;-72
2023/06/04 06:44:44;;;;;;;2.13;1.03;;;;;;;;;;5016768;28;20203;-72
2023/06/04 06:47:13;;;;;;;1.87;1.00;;;;;;;;;;4997048;28;20677;-72
2023/06/04 06:49:41;;;;;;;2.83;0.97;;;;;;;;;;5030117;28;20191;-72
2023/06/04 06:52:07;;;;;;;1.10;0.80;;;;;;;;;;5034359;28;20282;-72
2023/06/04 06:54:34;;;;;;;2.27;1.10;;;;;;;;;;4996708;28;20199;-71
2023/06/04 06:57:19;;;;;;;3.63;1.10;;;;;;;;;;5008049;28;20215;-71
2023/06/04 06:59:45;;;;;;;2.30;1.10;;;;;;;;;;5034123;28;20278;-72
2023/06/04 07:02:12;;;;;;;3.63;1.00;;;;;;;;;;5015542;28;20665;-72
2023/06/04 07:04:42;;;;;;;1.47;1.00;;;;;;;;;;5000019;28;20196;-72
2023/06/04 07:07:09;;;;;;;1.73;0.63;;;;;;;;;;5001907;28;20188;-72
2023/06/04 07:09:35;;;;;;;1.37;0.70;;;;;;;;;;5034142;28;20215;-72
2023/06/04 07:12:02;;;;;;;3.00;0.90;;;;;;;;;;5015869;28;20187;-72
2023/06/04 07:14:29;;;;;;;1.40;0.90;;;;;;;;;;5033446;28;20269;-73
2023/06/04 07:16:56;;;;;;;1.90;0.93;;;;;;;;;;5014637;28;20223;-72
2023/06/04 07:19:23;;;;;;;3.13;1.00;;;;;;;;;;5033132;28;20752;-72
2023/06/04 07:21:50;;;;;;;1.37;0.80;;;;;;;;;;5033747;28;20200;-72
2023/06/04 07:24:16;;;;;;;1.80;1.20;;;;;;;;;;5033645;28;20199;-71
2023/06/04 07:26:43;;;;;;;2.87;0.97;;;;;;;;;;5015934;28;20548;-72
2023/06/04 07:29:10;;;;;;;2.13;0.90;;;;;;;;;;5015329;28;20184;-72
2023/06/04 07:31:37;;;;;;;2.93;1.00;;;;;;;;;;5015730;28;20187;-72
2023/06/04 07:34:04;;;;;;;4.20;1.00;;;;;;;;;;5033002;28;20253;-72
2023/06/04 07:36:32;;;;;;;2.57;1.00;;;;;;;;;;5016170;28;20226;-72
2023/06/04 07:39:16;;;;;;;2.13;0.93;;;;;;;;;;5033270;28;20767;-73
2023/06/04 07:41:43;;;;;;;2.43;0.90;;;;;;;;;;5033567;28;20218;-72
2023/06/04 07:44:10;;;;;;;2.87;0.97;;;;;;;;;;5015397;28;20237;-72
2023/06/04 07:46:37;;;;;;;2.03;0.90;;;;;;;;;;5033532;28;20226;-72
2023/06/04 07:49:04;;;;;;;1.20;0.83;;;;;;;;;;5033316;28;20192;-72
2023/06/04 07:51:47;;;;;;;2.30;1.00;;;;;;;;;;5020508;28;20179;-73
2023/06/04 07:54:14;;;;;;;1.83;1.00;;;;;;;;;;5031864;28;20581;-72
2023/06/04 07:56:41;;;;;;;0.80;0.80;;;;;;;;;;5033168;28;20330;-72
2023/06/04 07:59:08;;;;;;;1.87;0.90;;;;;;;;;;5032666;28;20246;-72
2023/06/04 08:01:34;;;;;;;3.53;1.00;;;;;;;;;;5032694;28;20204;-72
2023/06/04 08:04:01;;;;;;;3.40;1.10;;;;;;;;;;5032359;28;20724;-72
2023/06/04 08:06:28;;;;;;;2.50;1.07;;;;;;;;;;5032537;28;20195;-73
2023/06/04 08:08:55;;;;;;;1.53;1.10;;;;;;;;;;5014802;28;20179;-72
2023/06/04 08:11:25;;;;;;;1.07;0.80;;;;;;;;;;5033134;28;20258;-70
2023/06/04 08:13:52;;;;;;;1.97;0.90;;;;;;;;;;5015592;28;20661;-72
2023/06/04 08:16:18;;;;;;;0.87;0.77;;;;;;;;;;5015071;28;20293;-72
2023/06/04 08:18:45;;;;;;;1.23;0.83;;;;;;;;;;4998132;28;20204;-72
2023/06/04 08:21:12;;;;;;;1.37;0.60;;;;;;;;;;5032283;28;20219;-72
2023/06/04 08:23:39;;;;;;;1.87;0.90;;;;;;;;;;5015162;28;20198;-71
2023/06/04 08:26:06;;;;;;;2.13;1.03;;;;;;;;;;5032346;28;20195;-72
2023/06/04 08:28:34;;;;;;;2.70;0.90;;;;;;;;;;5014868;28;20684;-71
2023/06/04 08:31:01;;;;;;;2.70;0.83;;;;;;;;;;5014701;28;20246;-72
2023/06/04 08:33:30;;;;;;;2.67;1.00;;;;;;;;;;5032094;28;20282;-71
2023/06/04 08:35:57;;;;;;;1.47;1.03;;;;;;;;;;5032192;28;20191;-68
2023/06/04 08:38:23;;;;;;;1.80;0.93;;;;;;;;;;5032407;28;20559;-69
2023/06/04 08:41:10;;;;;;;2.03;0.90;;;;;;;;;;5032104;28;20187;-69
2023/06/04 08:43:37;;;;;;;2.47;0.70;;;;;;;;;;5014246;28;20249;-68
2023/06/04 08:46:23;;;;;;;2.03;0.80;;;;;;;;;;5016963;28;20171;-68
2023/06/04 08:48:50;;;;;;;3.13;0.70;;;;;;;;;;5014604;28;20732;-69
2023/06/04 08:51:36;;;;;;;1.20;0.80;;;;;;;;;;5031560;28;20171;-68
2023/06/04 08:54:07;;;;;;;1.60;0.80;;;;;;;;;;5014166;28;20283;-69
2023/06/04 08:56:51;;;;;;;2.17;0.67;;;;;;;;;;5018456;28;20585;-68
2023/06/04 08:59:18;;;;;;;1.80;0.70;;;;;;;;;;5031404;28;20226;-68
2023/06/04 09:01:46;;;;;;;1.80;0.60;;;;;;;;;;5014403;28;20215;-77
2023/06/04 09:04:13;;;;;;;2.40;0.80;;;;;;;;;;5014517;28;20219;-67
2023/06/04 09:06:41;;;;;;;1.33;0.70;;;;;;;;;;5031440;28;20219;-68
2023/06/04 09:09:25;;;;;;;3.13;0.63;;;;;;;;;;5016590;28;20186;-68
2023/06/04 09:11:52;;;;;;;1.83;0.70;;;;;;;;;;5031019;28;20191;-69
2023/06/04 09:14:19;;;;;;;3.83;0.80;;;;;;;;;;5014409;28;20187;-68
2023/06/04 09:16:50;;;;;;;1.67;1.00;;;;;;;;;;5013937;28;21138;-68
2023/06/04 09:19:17;;;;;;;1.00;0.80;;;;;;;;;;5031791;28;20243;-68
2023/06/04 09:21:51;;;;;;;1.83;0.70;;;;;;;;;;5031370;28;20202;-68
2023/06/04 09:24:18;;;;;;;1.67;0.73;;;;;;;;;;5031117;28;20218;-68
2023/06/04 09:27:08;;;;;;;2.03;0.80;;;;;;;;;;5016516;28;20179;-68
2023/06/04 09:29:36;;;;;;;1.37;0.80;;;;;;;;;;5031440;28;20191;-68
2023/06/04 09:32:23;;;;;;;1.63;0.93;;;;;;;;;;5030944;28;20598;-65
2023/06/04 09:34:52;;;;;;;2.80;0.70;;;;;;;;;;5013091;28;20626;-67
2023/06/04 09:37:21;;;;;;;2.10;0.70;;;;;;;;;;5031217;28;20234;-67
2023/06/04 09:39:55;;;;;;;2.07;0.87;;;;;;;;;;5030867;28;20223;-67
2023/06/04 09:42:22;;;;;;;2.63;1.00;;;;;;;;;;5030765;28;20210;-66
2023/06/04 09:44:49;;;;;;;2.93;0.70;;;;;;;;;;5030538;28;20202;-67
2023/06/04 09:47:16;;;;;;;3.40;0.90;;;;;;;;;;5030581;28;20195;-67
2023/06/04 09:49:46;;;;;;;1.30;0.73;;;;;;;;;;5030643;28;20735;-66
2023/06/04 09:52:13;;;;;;;1.53;1.00;;;;;;;;;;5013599;28;20601;-67
2023/06/04 09:54:41;;;;;;;1.07;0.70;;;;;;;;;;5030818;28;20192;-67
2023/06/04 09:57:17;;;;;;;2.13;0.97;;;;;;;;;;5030540;28;20199;-66
2023/06/04 09:59:45;;;;;;;1.50;0.70;;;;;;;;;;5030276;28;20222;-67
2023/06/04 10:02:12;;;;;;;1.17;0.83;;;;;;;;;;5030805;28;20204;-66
2023/06/04 10:04:42;;;;;;;2.80;0.77;;;;;;;;;;5013430;28;20196;-67
2023/06/04 10:07:10;;;;;;;1.83;0.70;;;;;;;;;;5013572;28;20196;-66
2023/06/04 10:09:45;;;;;;;1.47;0.97;;;;;;;;;;5030813;28;20189;-67
2023/06/04 10:12:16;;;;;;;0.83;0.67;;;;;;;;;;5030678;28;20196;-67
2023/06/04 10:15:03;;;;;;;0.97;0.60;;;;;;;;;;5030520;28;20695;-67
2023/06/04 10:17:32;;;;;;;2.20;0.80;;;;;;;;;;5030141;28;20224;-66
2023/06/04 10:19:59;;;;;;;1.77;0.70;;;;;;;;;;5030388;28;20250;-67
2023/06/04 10:22:26;;;;;;;1.40;0.70;;;;;;;;;;5030432;28;20179;-67
2023/06/04 10:24:53;;;;;;;1.47;0.60;;;;;;;;;;5012167;28;20643;-66
2023/06/04 10:27:37;;;;;;;1.90;1.00;;;;;;;;;;5018466;28;20527;-66
2023/06/04 10:30:04;;;;;;;1.97;0.80;;;;;;;;;;5029934;28;20211;-67
2023/06/04 10:32:49;;;;;;;4.40;0.90;;;;;;;;;;5030021;28;20183;-67
2023/06/04 10:35:16;;;;;;;1.73;0.90;;;;;;;;;;5029714;28;20202;-67
2023/06/04 10:37:43;;;;;;;2.50;0.80;;;;;;;;;;5030177;28;20222;-67
2023/06/04 10:40:10;;;;;;;1.77;1.00;;;;;;;;;;5030562;28;20243;-67
2023/06/04 10:42:37;;;;;;;2.40;0.80;;;;;;;;;;5012987;28;20246;-67
2023/06/04 10:45:05;;;;;;;1.23;0.83;;;;;;;;;;5029884;28;20179;-67
2023/06/04 10:47:36;;;;;;;0.83;0.70;;;;;;;;;;4992944;28;20797;-68
2023/06/04 10:50:21;;;;;;;2.67;0.90;;;;;;;;;;5029687;28;20195;-67
2023/06/04 10:53:05;;;;;;;1.17;0.70;;;;;;;;;;5030232;28;20268;-67
2023/06/04 10:55:32;;;;;;;1.00;0.70;;;;;;;;;;5030510;28;20179;-67
2023/06/04 10:58:17;;;;;;;1.30;0.63;;;;;;;;;;5030207;28;20230;-67
2023/06/04 11:00:49;;;;;;;1.90;0.90;;;;;;;;;;5029826;28;20231;-67
2023/06/04 11:03:16;;;;;;;1.33;0.70;;;;;;;;;;5012973;28;20238;-68
2023/06/04 11:05:44;;;;;;;1.47;0.80;;;;;;;;;;5030370;28;20200;-68
2023/06/04 11:08:11;;;;;;;1.07;0.60;;;;;;;;;;5012978;28;20284;-68
2023/06/04 11:10:55;;;;;;;1.03;0.80;;;;;;;;;;5015248;28;20851;-68
2023/06/04 11:13:28;;;;;;;2.10;0.83;;;;;;;;;;5027169;28;23126;-68
2023/06/04 11:16:16;;;;;;;2.20;0.80;;;;;;;;;;5017448;28;20183;-68
2023/06/04 11:18:43;;;;;;;1.70;0.80;;;;;;;;;;5008529;28;20212;-68
2023/06/04 11:21:14;;;;;;;2.23;0.93;;;;;;;;;;5020491;28;20278;-68
2023/06/04 11:23:41;;;;;;;0.80;0.80;;;;;;;;;;5012509;28;20187;-67
2023/06/04 11:26:08;;;;;;;1.40;0.90;;;;;;;;;;5002228;28;20701;-67
2023/06/04 11:28:35;;;;;;;2.83;1.00;;;;;;;;;;5013235;28;20644;-67
2023/06/04 11:31:08;;;;;;;1.30;0.97;;;;;;;;;;5033767;28;20557;-67
2023/06/04 11:33:44;;;;;;;0.90;0.67;;;;;;;;;;5015437;28;20192;-67
2023/06/04 11:36:25;;;;;;;1.50;0.80;;;;;;;;;;5033031;28;20187;-67
2023/06/04 11:39:08;;;;;;;2.20;0.80;;;;;;;;;;5033303;28;20600;-67
2023/06/04 11:41:35;;;;;;;2.27;0.80;;;;;;;;;;5033615;28;20272;-67
2023/06/04 11:44:06;;;;;;;2.30;0.90;;;;;;;;;;5015765;28;20716;-67
2023/06/04 11:46:39;;;;;;;2.30;0.80;;;;;;;;;;5016877;28;20191;-68
2023/06/04 11:49:06;;;;;;;1.33;0.70;;;;;;;;;;5015747;28;20670;-67
2023/06/04 11:51:33;;;;;;;1.27;0.80;;;;;;;;;;5015208;28;20192;-67
2023/06/04 11:53:59;;;;;;;1.13;1.00;;;;;;;;;;5033425;28;20192;-67
2023/06/04 11:56:26;;;;;;;2.83;0.80;;;;;;;;;;5033200;28;20235;-68
2023/06/04 11:58:56;;;;;;;1.17;0.70;;;;;;;;;;5023694;28;20216;-67
2023/06/04 12:01:23;;;;;;;1.60;0.80;;;;;;;;;;5027727;28;20751;-68
2023/06/04 12:04:13;;;;;;;1.57;0.80;;;;;;;;;;5032740;28;20221;-67
2023/06/04 12:06:54;;;;;;;1.53;0.80;;;;;;;;;;5032487;28;20466;-67
2023/06/04 12:09:39;;;;;;;0.93;0.60;;;;;;;;;;5017678;28;20175;-67
2023/06/04 12:12:06;;;;;;;0.97;0.70;;;;;;;;;;5032383;28;20183;-67
2023/06/04 12:14:59;;;;;;;0.93;0.77;;;;;;;;;;5032316;28;20259;-68
2023/06/04 12:17:26;;;;;;;1.20;0.63;;;;;;;;;;5032378;28;20234;-67
2023/06/04 12:20:10;;;;;;;2.77;0.70;;;;;;;;;;5032650;28;20221;-68
2023/06/04 12:22:52;;;;;;;1.10;0.70;;;;;;;;;;5032252;28;20263;-68
2023/06/04 12:25:39;;;;;;;1.47;0.80;;;;;;;;;;5017079;28;20223;-68
2023/06/04 12:28:06;;;;;;;2.60;0.80;;;;;;;;;;5032098;28;20192;-67
2023/06/04 12:30:50;;;;;;;1.00;0.60;;;;;;;;;;5019333;28;20262;-68
2023/06/04 12:33:16;;;;;;;1.63;0.63;;;;;;;;;;5014883;28;20713;-68
2023/06/04 12:36:01;;;;;;;8.57;1.40;;;;;;;;;;5019749;28;20191;-68
2023/06/04 12:38:27;;;;;;;1.03;0.80;;;;;;;;;;5014878;28;20192;-68
2023/06/04 12:40:54;;;;;;;3.30;0.90;;;;;;;;;;5031191;28;20218;-67
2023/06/04 12:43:21;;;;;;;3.20;0.80;;;;;;;;;;5032187;28;20263;-67
2023/06/04 12:45:48;;;;;;;2.07;0.70;;;;;;;;;;5032375;28;20198;-67
2023/06/04 12:48:33;;;;;;;2.10;0.63;;;;;;;;;;4997396;28;20176;-68
2023/06/04 12:51:00;;;;;;;1.40;0.70;;;;;;;;;;5026770;28;20188;-67
2023/06/04 12:53:26;;;;;;;2.30;0.80;;;;;;;;;;5031925;28;20195;-67
2023/06/04 12:55:53;;;;;;;1.43;0.80;;;;;;;;;;5032116;28;20302;-68
2023/06/04 12:58:20;;;;;;;2.17;0.87;;;;;;;;;;5014038;28;20202;-67
2023/06/04 13:01:03;;;;;;;1.83;1.00;;;;;;;;;;5031367;28;20187;-68
2023/06/04 13:03:31;;;;;;;1.00;0.70;;;;;;;;;;5014199;28;20463;-67
2023/06/04 13:06:00;;;;;;;1.10;0.73;;;;;;;;;;5014345;28;20550;-67
2023/06/04 13:08:29;;;;;;;3.77;1.03;;;;;;;;;;5031976;28;20697;-67
2023/06/04 13:10:57;;;;;;;1.30;0.80;;;;;;;;;;5032398;28;20250;-68
2023/06/04 13:13:41;;;;;;;1.27;0.70;;;;;;;;;;5016350;28;20189;-68
2023/06/04 13:16:08;;;;;;;1.10;0.90;;;;;;;;;;5031101;28;20196;-67
2023/06/04 13:18:35;;;;;;;1.20;0.80;;;;;;;;;;5031258;28;20191;-67
2023/06/04 13:21:02;;;;;;;3.60;0.80;;;;;;;;;;5031794;28;20318;-67
2023/06/04 13:23:29;;;;;;;1.20;0.70;;;;;;;;;;5031366;28;20186;-68
2023/06/04 13:26:13;;;;;;;1.20;0.57;;;;;;;;;;5022301;28;20183;-68
2023/06/04 13:28:40;;;;;;;1.53;0.90;;;;;;;;;;5031400;28;20195;-68
2023/06/04 13:31:27;;;;;;;2.20;0.80;;;;;;;;;;5031138;28;20176;-68
2023/06/04 13:33:54;;;;;;;1.77;0.80;;;;;;;;;;5031460;28;20194;-67
2023/06/04 13:36:38;;;;;;;1.13;0.60;;;;;;;;;;5016613;28;20198;-67
2023/06/04 13:39:05;;;;;;;1.10;0.70;;;;;;;;;;5031095;28;20254;-68
2023/06/04 13:41:32;;;;;;;0.83;0.63;;;;;;;;;;5031038;28;20199;-68
2023/06/04 13:43:59;;;;;;;1.47;0.83;;;;;;;;;;5013363;28;20202;-67
2023/06/04 13:46:26;;;;;;;2.57;0.57;;;;;;;;;;5030274;28;20205;-68
2023/06/04 13:49:10;;;;;;;1.00;0.70;;;;;;;;;;5030575;28;20257;-68
2023/06/04 13:51:36;;;;;;;1.50;0.80;;;;;;;;;;5030058;28;20211;-68
2023/06/04 13:54:03;;;;;;;1.20;0.70;;;;;;;;;;5012794;28;20207;-67
2023/06/04 13:56:30;;;;;;;1.17;0.80;;;;;;;;;;5030882;28;20551;-67
2023/06/04 13:58:57;;;;;;;0.97;0.60;;;;;;;;;;5030911;28;20195;-67
2023/06/04 14:01:23;;;;;;;0.97;0.80;;;;;;;;;;5030420;28;20193;-68
2023/06/04 14:03:51;;;;;;;1.27;0.70;;;;;;;;;;5030436;28;20618;-68
2023/06/04 14:06:18;;;;;;;2.30;0.70;;;;;;;;;;5030141;28;20216;-67
2023/06/04 14:08:45;;;;;;;1.50;0.80;;;;;;;;;;5030689;28;20196;-68
2023/06/04 14:11:12;;;;;;;0.97;0.70;;;;;;;;;;5030876;28;20834;-67
2023/06/04 14:13:41;;;;;;;2.57;0.70;;;;;;;;;;5030741;28;20605;-67
2023/06/04 14:16:25;;;;;;;2.00;0.63;;;;;;;;;;5030758;28;20179;-68
2023/06/04 14:18:52;;;;;;;2.50;0.60;;;;;;;;;;5016478;28;20183;-67
2023/06/04 14:21:20;;;;;;;2.07;0.93;;;;;;;;;;5029759;28;20179;-67
2023/06/04 14:23:47;;;;;;;1.30;0.80;;;;;;;;;;5028485;28;20192;-68
2023/06/04 14:26:14;;;;;;;1.63;0.70;;;;;;;;;;5028786;28;20516;-67
2023/06/04 14:28:41;;;;;;;1.50;0.83;;;;;;;;;;5028420;28;20192;-67
2023/06/04 14:31:07;;;;;;;1.50;0.77;;;;;;;;;;5028928;28;20241;-68
2023/06/04 14:33:35;;;;;;;3.57;0.70;;;;;;;;;;5028498;28;20186;-67
2023/06/04 14:36:19;;;;;;;0.73;0.53;;;;;;;;;;5028388;28;20178;-67
2023/06/04 14:38:47;;;;;;;1.60;0.80;;;;;;;;;;5028390;28;20912;-67
2023/06/04 14:41:14;;;;;;;2.27;0.60;;;;;;;;;;5010960;28;20218;-66
2023/06/04 14:43:42;;;;;;;1.50;0.83;;;;;;;;;;5028379;28;20183;-67
2023/06/04 14:46:08;;;;;;;0.97;0.80;;;;;;;;;;5028707;28;20253;-68
2023/06/04 14:48:35;;;;;;;1.33;0.80;;;;;;;;;;5028562;28;20223;-68
2023/06/04 14:51:02;;;;;;;0.90;0.60;;;;;;;;;;5028367;28;20201;-68
2023/06/04 14:53:29;;;;;;;0.57;0.50;;;;;;;;;;5010808;28;20183;-67
2023/06/04 14:55:56;;;;;;;2.03;0.73;;;;;;;;;;5028675;28;20279;-67
2023/06/04 14:58:22;;;;;;;0.80;0.60;;;;;;;;;;5028798;28;20279;-67
2023/06/04 15:00:49;;;;;;;1.90;0.60;;;;;;;;;;5028491;28;20215;-67
2023/06/04 15:03:33;;;;;;;0.90;0.70;;;;;;;;;;5030764;28;20642;-67
2023/06/04 15:06:01;;;;;;;1.90;0.73;;;;;;;;;;5032188;28;20192;-69
2023/06/04 15:08:45;;;;;;;1.13;0.70;;;;;;;;;;5032280;28;20179;-67
2023/06/04 15:11:13;;;;;;;1.43;0.70;;;;;;;;;;5032473;28;20210;-67
2023/06/04 15:13:40;;;;;;;1.23;0.60;;;;;;;;;;5032007;28;20198;-67
2023/06/04 15:16:07;;;;;;;1.20;0.70;;;;;;;;;;5014416;28;20960;-68
2023/06/04 15:18:34;;;;;;;3.27;0.80;;;;;;;;;;5032030;28;20654;-67
2023/06/04 15:21:00;;;;;;;1.10;0.50;;;;;;;;;;5031612;28;20221;-67
2023/06/04 15:23:27;;;;;;;1.30;0.67;;;;;;;;;;5031892;28;20581;-67
2023/06/04 15:25:54;;;;;;;0.60;0.53;;;;;;;;;;5031392;28;20722;-68
2023/06/04 15:28:21;;;;;;;1.97;0.60;;;;;;;;;;5031757;28;20188;-67
2023/06/04 15:30:47;;;;;;;1.10;0.63;;;;;;;;;;5033034;28;20196;-67